createdAt,value
2023-02-23T00:04:57.542Z,30.00
2023-02-23T00:07:28.038Z,19.75
2023-02-23T00:09:59.240Z,22.50
2023-02-23T00:12:29.752Z,25.25
2023-02-23T00:15:13.560Z,21.75
2023-02-23T00:17:50.519Z,27.50
2023-02-23T00:20:23.754Z,21.75
2023-02-23T00:22:59.663Z,30.50
2023-02-23T00:25:30.675Z,22.50
2023-02-23T00:28:01.233Z,25.25
2023-02-23T00:30:41.233Z,26.50
2023-02-23T00:33:18.834Z,24.25
2023-02-23T00:35:49.167Z,21.75
2023-02-23T00:38:19.911Z,27.00
2023-02-23T00:40:50.711Z,24.00
2023-02-23T00:43:22.773Z,33.50
2023-02-23T00:45:57.332Z,20.75
2023-02-23T00:48:27.559Z,15.00
2023-02-23T00:51:02.876Z,27.25
2023-02-23T00:53:33.520Z,20.25
2023-02-23T00:56:10.617Z,27.25
2023-02-23T00:58:41.227Z,22.50
2023-02-23T01:01:14.611Z,19.75
2023-02-23T01:03:45.779Z,20.75
2023-02-23T01:06:17.964Z,22.75
2023-02-23T01:08:50.493Z,33.00
2023-02-23T01:11:23.603Z,25.00
2023-02-23T01:13:56.881Z,32.75
2023-02-23T01:16:30.770Z,25.75
2023-02-23T01:19:05.486Z,26.75
2023-02-23T01:21:39.424Z,27.50
2023-02-23T01:24:11.547Z,28.00
2023-02-23T01:26:45.679Z,30.00
2023-02-23T01:29:18.253Z,21.50
2023-02-23T01:31:50.729Z,25.00
2023-02-23T01:34:22.215Z,25.75
2023-02-23T01:36:55.651Z,24.25
2023-02-23T01:39:26.007Z,36.50
2023-02-23T01:42:01.586Z,21.00
2023-02-23T01:44:35.688Z,28.75
2023-02-23T01:47:08.580Z,25.50
2023-02-23T01:49:39.593Z,33.00
2023-02-23T01:52:31.026Z,29.25
2023-02-23T01:55:01.460Z,29.75
2023-02-23T01:57:35.358Z,24.75
2023-02-23T02:00:07.645Z,21.75
2023-02-23T02:02:38.084Z,31.25
2023-02-23T02:05:08.874Z,32.00
2023-02-23T02:07:40.908Z,23.75
2023-02-23T02:10:13.132Z,27.25
2023-02-23T02:12:46.775Z,23.25
2023-02-23T02:15:17.390Z,29.50
2023-02-23T02:17:53.552Z,31.25
2023-02-23T02:20:38.640Z,28.00
2023-02-23T02:23:46.763Z,26.50
2023-02-23T02:26:20.857Z,28.25
2023-02-23T02:29:20.477Z,25.00
2023-02-23T02:31:53.920Z,27.75
2023-02-23T02:34:56.043Z,33.00
2023-02-23T02:37:39.433Z,24.50
2023-02-23T02:40:30.569Z,25.50
2023-02-23T02:43:18.821Z,24.25
2023-02-23T02:45:57.772Z,27.50
2023-02-23T02:48:55.520Z,21.75
2023-02-23T02:51:28.820Z,20.25
2023-02-23T02:54:07.658Z,26.00
2023-02-23T02:56:46.101Z,39.50
2023-02-23T02:59:33.822Z,31.75
2023-02-23T03:02:06.137Z,26.50
2023-02-23T03:04:37.344Z,26.00
2023-02-23T03:07:28.501Z,39.50
2023-02-23T03:10:05.052Z,31.25
2023-02-23T03:12:41.831Z,31.25
2023-02-23T03:15:18.316Z,36.25
2023-02-23T03:17:52.373Z,38.75
2023-02-23T03:20:34.172Z,28.50
2023-02-23T03:23:27.936Z,31.50
2023-02-23T03:26:06.665Z,29.50
2023-02-23T03:28:46.565Z,29.50
2023-02-23T03:31:43.392Z,27.50
2023-02-23T03:34:19.303Z,15.00
2023-02-23T03:36:55.749Z,29.00
2023-02-23T03:39:31.573Z,31.25
2023-02-23T03:42:05.141Z,27.50
2023-02-23T03:44:39.027Z,33.75
2023-02-23T03:47:12.637Z,21.25
2023-02-23T03:49:45.091Z,28.50
2023-02-23T03:52:18.776Z,26.00
2023-02-23T03:55:06.343Z,20.50
2023-02-23T03:57:40.527Z,33.50
2023-02-23T04:00:13.932Z,29.25
2023-02-23T04:02:47.275Z,28.25
2023-02-23T04:08:21.940Z,32.50
2023-02-23T04:10:57.160Z,31.50
2023-02-23T04:13:30.896Z,32.75
2023-02-23T04:16:05.711Z,34.00
2023-02-23T04:18:39.722Z,25.25
2023-02-23T04:21:10.164Z,28.25
2023-02-23T04:23:43.385Z,33.75
2023-02-23T04:26:13.721Z,32.50
2023-02-23T04:28:44.354Z,25.00
2023-02-23T04:31:15.029Z,20.50
2023-02-23T04:33:45.441Z,28.00
2023-02-23T04:36:15.878Z,31.50
2023-02-23T04:38:46.901Z,28.50
2023-02-23T04:41:19.538Z,34.50
2023-02-23T04:43:50.779Z,30.50
2023-02-23T04:46:21.155Z,25.75
2023-02-23T04:48:55.575Z,29.00
2023-02-23T04:51:28.905Z,27.25
2023-02-23T04:53:59.354Z,26.75
2023-02-23T04:56:32.881Z,36.75
2023-02-23T04:59:09.093Z,24.25
2023-02-23T05:01:41.577Z,25.00
2023-02-23T05:04:13.048Z,26.25
2023-02-23T05:07:01.072Z,9.00
2023-02-23T05:09:35.059Z,6.75
2023-02-23T05:12:09.249Z,36.50
2023-02-23T05:14:41.222Z,34.50
2023-02-23T05:17:29.733Z,35.25
2023-02-23T05:20:00.075Z,15.50
2023-02-23T05:22:31.175Z,41.25
2023-02-23T05:25:01.627Z,34.00
2023-02-23T05:27:32.704Z,34.00
2023-02-23T05:30:03.396Z,37.50
2023-02-23T05:32:34.103Z,35.00
2023-02-23T05:35:04.725Z,36.00
2023-02-23T05:37:36.967Z,42.50
2023-02-23T05:40:08.336Z,28.25
2023-02-23T05:42:39.435Z,40.50
2023-02-23T05:45:10.149Z,43.25
2023-02-23T05:47:40.574Z,47.25
2023-02-23T05:50:13.113Z,48.25
2023-02-23T05:52:44.201Z,41.75
2023-02-23T05:55:15.261Z,47.25
2023-02-23T05:57:49.192Z,47.75
2023-02-23T06:00:20.271Z,46.00
2023-02-23T06:02:51.700Z,39.50
2023-02-23T06:05:23.030Z,52.25
2023-02-23T06:07:54.418Z,63.75
2023-02-23T06:10:26.430Z,54.00
2023-02-23T06:12:58.399Z,56.75
2023-02-23T06:15:33.245Z,53.75
2023-02-23T06:18:04.895Z,60.00
2023-02-23T06:20:36.088Z,48.75
2023-02-23T06:23:07.979Z,56.75
2023-02-23T06:25:44.896Z,51.25
2023-02-23T06:28:16.129Z,39.50
2023-02-23T06:30:46.875Z,52.00
2023-02-23T06:33:17.410Z,45.25
2023-02-23T06:35:47.885Z,42.75
2023-02-23T06:38:18.837Z,49.25
2023-02-23T06:40:49.604Z,43.50
2023-02-23T06:43:22.174Z,49.00
2023-02-23T06:45:56.122Z,2.50
2023-02-23T06:48:29.707Z,47.75
2023-02-23T06:51:00.979Z,33.50
2023-02-23T06:53:38.199Z,38.75
2023-02-23T06:56:08.762Z,31.75
2023-02-23T06:58:39.171Z,35.00
2023-02-23T07:01:10.316Z,37.25
2023-02-23T07:03:42.504Z,32.25
2023-02-23T07:06:12.817Z,21.75
2023-02-23T07:08:43.840Z,24.00
2023-02-23T07:11:17.437Z,27.75
2023-02-23T07:14:15.359Z,27.75
2023-02-23T07:16:43.671Z,22.50
2023-02-23T07:19:17.177Z,22.25
2023-02-23T07:21:47.789Z,23.00
2023-02-23T07:24:18.144Z,26.25
2023-02-23T07:27:02.779Z,22.50
2023-02-23T07:29:27.053Z,19.25
2023-02-23T07:31:57.625Z,25.75
2023-02-23T07:34:28.298Z,34.00
2023-02-23T07:36:58.643Z,52.50
2023-02-23T07:39:31.734Z,79.75
2023-02-23T07:42:07.066Z,14.50
2023-02-23T07:45:12.458Z,27.50
2023-02-23T07:58:16.392Z,14.00
2023-02-23T08:00:52.783Z,25.25
2023-02-23T08:03:23.603Z,16.50
2023-02-23T08:05:56.852Z,21.25
2023-02-23T08:08:28.657Z,13.75
2023-02-23T08:11:05.348Z,85.25
2023-02-23T08:14:09.394Z,41.75
2023-02-23T08:39:46.858Z,20.50
2023-02-23T08:45:12.893Z,22.75
2023-02-23T08:47:44.211Z,27.00
2023-02-23T08:50:33.777Z,21.75
2023-02-23T08:53:12.596Z,17.75
2023-02-23T08:55:44.092Z,14.75
2023-02-23T08:58:15.548Z,18.75
2023-02-23T09:00:46.801Z,20.75
2023-02-23T09:06:13.001Z,16.25
2023-02-23T09:08:46.663Z,17.75
2023-02-23T09:11:17.870Z,15.75
2023-02-23T09:13:49.235Z,16.75
2023-02-23T09:16:23.626Z,21.00
2023-02-23T09:18:59.598Z,20.50
2023-02-23T09:21:33.008Z,16.75
2023-02-23T09:24:04.486Z,16.75
2023-02-23T09:26:35.845Z,19.00
2023-02-23T09:29:08.970Z,13.25
2023-02-23T09:31:42.512Z,14.50
2023-02-23T09:34:13.009Z,15.25
2023-02-23T09:36:44.165Z,16.25
2023-02-23T09:39:14.680Z,18.00
2023-02-23T09:42:09.688Z,12.50
2023-02-23T09:44:44.164Z,16.50
2023-02-23T09:47:36.535Z,13.75
2023-02-23T09:50:15.851Z,13.75
2023-02-23T09:52:59.207Z,10.25
2023-02-23T09:55:30.576Z,15.50
2023-02-23T09:58:07.096Z,14.00
2023-02-23T10:00:40.531Z,12.50
2023-02-23T10:03:21.086Z,8.75
2023-02-23T10:06:18.220Z,12.75
2023-02-23T10:09:20.661Z,11.75
2023-02-23T10:12:05.429Z,12.25
2023-02-23T10:15:04.234Z,12.75
2023-02-23T10:18:09.674Z,12.25
2023-02-23T10:21:10.831Z,11.00
2023-02-23T10:24:00.529Z,11.25
2023-02-23T10:26:46.365Z,7.50
2023-02-23T10:29:25.083Z,12.00
2023-02-23T10:32:05.108Z,10.00
2023-02-23T10:34:37.536Z,13.50
2023-02-23T10:37:11.324Z,15.25
2023-02-23T10:39:50.467Z,20.50
2023-02-23T10:42:26.500Z,22.25
2023-02-23T10:45:02.086Z,15.50
2023-02-23T10:47:35.822Z,25.25
2023-02-23T10:50:08.316Z,45.75
2023-02-23T10:52:47.284Z,30.00
2023-02-23T10:55:40.062Z,23.00
2023-02-23T10:58:35.039Z,30.25
2023-02-23T11:01:12.591Z,16.00
2023-02-23T11:03:52.328Z,10.00
2023-02-23T11:06:33.762Z,12.25
2023-02-23T11:09:43.804Z,11.75
2023-02-23T11:12:03.132Z,12.00
2023-02-23T11:14:35.226Z,8.50
2023-02-23T11:17:05.660Z,12.50
2023-02-23T11:19:40.545Z,12.75
2023-02-23T11:22:15.552Z,11.75
2023-02-23T11:24:46.621Z,15.00
2023-02-23T11:27:26.047Z,14.00
2023-02-23T11:29:59.646Z,11.75
2023-02-23T11:32:33.083Z,15.25
2023-02-23T11:35:33.441Z,15.25
2023-02-23T11:38:26.122Z,11.00
2023-02-23T11:41:05.858Z,9.25
2023-02-23T11:43:36.853Z,11.25
2023-02-23T11:46:09.904Z,11.00
2023-02-23T11:49:03.245Z,10.50
2023-02-23T11:51:57.500Z,11.00
2023-02-23T11:54:51.388Z,7.25
2023-02-23T11:57:27.052Z,11.50
2023-02-23T12:00:00.719Z,11.50
2023-02-23T12:02:33.227Z,7.25
2023-02-23T12:05:09.594Z,12.00
2023-02-23T12:07:43.286Z,12.00
2023-02-23T12:10:25.380Z,8.00
2023-02-23T12:13:28.769Z,16.75
2023-02-23T12:16:31.223Z,10.75
2023-02-23T12:19:28.896Z,12.00
2023-02-23T12:22:15.563Z,9.75
2023-02-23T12:25:04.007Z,13.00
2023-02-23T12:27:43.953Z,6.25
2023-02-23T12:30:44.060Z,10.25
2023-02-23T12:33:20.298Z,15.00
2023-02-23T12:36:00.702Z,12.00
2023-02-23T12:39:01.817Z,10.75
2023-02-23T12:41:49.401Z,12.50
2023-02-23T12:44:59.475Z,4.50
2023-02-23T12:47:39.494Z,10.00
2023-02-23T12:50:15.917Z,14.00
2023-02-23T12:53:01.006Z,15.75
2023-02-23T12:55:37.363Z,9.50
2023-02-23T12:58:19.269Z,6.50
2023-02-23T13:00:55.472Z,11.00
2023-02-23T13:03:58.890Z,11.50
2023-02-23T13:06:40.659Z,6.75
2023-02-23T13:09:43.767Z,9.25
2023-02-23T13:12:23.041Z,7.75
2023-02-23T13:15:33.057Z,9.75
2023-02-23T13:18:24.296Z,10.75
2023-02-23T13:21:00.285Z,14.50
2023-02-23T13:23:34.180Z,13.00
2023-02-23T13:26:25.273Z,11.50
2023-02-23T13:28:59.219Z,9.75
2023-02-23T13:31:38.204Z,12.50
2023-02-23T13:34:16.290Z,9.50
2023-02-23T13:36:47.894Z,13.25
2023-02-23T13:39:40.616Z,11.75
2023-02-23T13:42:32.274Z,9.25
2023-02-23T13:45:23.370Z,9.25
2023-02-23T13:48:05.572Z,12.50
2023-02-23T13:50:46.331Z,12.00
2023-02-23T13:54:04.253Z,8.50
2023-02-23T13:56:44.240Z,15.50
2023-02-23T13:59:23.526Z,10.25
2023-02-23T14:01:55.832Z,20.50
2023-02-23T14:04:43.903Z,13.00
2023-02-23T14:16:24.905Z,9.50
2023-02-23T14:19:16.617Z,10.25
2023-02-23T14:21:53.143Z,17.25
2023-02-23T14:24:29.509Z,12.50
2023-02-23T14:27:30.557Z,13.00
2023-02-23T14:30:10.256Z,15.00
2023-02-23T14:32:55.968Z,9.25
2023-02-23T14:35:38.608Z,12.25
2023-02-23T14:38:11.970Z,10.00
2023-02-23T14:40:45.241Z,12.00
2023-02-23T14:43:48.910Z,12.00
2023-02-23T14:46:24.072Z,11.25
2023-02-23T14:49:07.956Z,9.75
2023-02-23T14:51:43.161Z,8.00
2023-02-23T14:54:25.812Z,6.00
2023-02-23T14:56:59.205Z,10.50
2023-02-23T14:59:38.557Z,11.75
2023-02-23T15:05:18.477Z,11.25
2023-02-23T15:07:55.621Z,10.50
2023-02-23T15:10:29.475Z,11.00
2023-02-23T15:13:09.177Z,11.25
2023-02-23T15:15:43.017Z,6.50
2023-02-23T15:18:16.400Z,8.00
2023-02-23T15:20:50.568Z,7.75
2023-02-23T15:23:22.008Z,10.75
2023-02-23T15:25:56.639Z,14.75
2023-02-23T15:28:30.419Z,8.25
2023-02-23T15:31:08.051Z,14.75
2023-02-23T15:33:39.239Z,16.00
2023-02-23T15:36:28.403Z,10.50
2023-02-23T15:39:02.151Z,18.50
2023-02-23T15:41:38.430Z,17.25
2023-02-23T15:44:32.206Z,15.50
2023-02-23T15:47:26.780Z,22.50
2023-02-23T15:50:05.520Z,37.75
2023-02-23T15:52:39.722Z,42.50
2023-02-23T15:55:19.837Z,45.25
2023-02-23T15:58:23.403Z,30.75
2023-02-23T16:00:59.212Z,51.50
2023-02-23T16:03:36.344Z,57.50
2023-02-23T16:06:27.406Z,70.25
2023-02-23T16:09:21.775Z,67.25
2023-02-23T16:11:58.193Z,66.25
2023-02-23T16:14:37.810Z,61.50
2023-02-23T16:17:11.993Z,43.75
2023-02-23T16:19:40.318Z,50.00
2023-02-23T16:22:20.418Z,55.00
2023-02-23T16:24:53.913Z,61.75
2023-02-23T16:27:26.987Z,59.25
2023-02-23T16:30:18.230Z,60.50
2023-02-23T16:32:50.237Z,45.75
2023-02-23T16:35:21.804Z,35.25
2023-02-23T16:37:59.063Z,31.75
2023-02-23T16:40:29.999Z,33.75
2023-02-23T16:43:00.652Z,24.75
2023-02-23T16:45:34.661Z,22.50
2023-02-23T16:48:30.138Z,17.75
2023-02-23T16:51:01.703Z,26.25
2023-02-23T16:53:32.388Z,18.25
2023-02-23T16:56:06.219Z,16.00
2023-02-23T16:58:37.338Z,51.75
2023-02-23T17:01:07.892Z,33.25
2023-02-23T17:03:47.351Z,28.75
2023-02-23T17:06:11.692Z,25.00
2023-02-23T17:08:52.176Z,25.75
2023-02-23T17:11:16.037Z,22.25
2023-02-23T17:13:49.397Z,25.75
2023-02-23T17:16:20.191Z,23.25
2023-02-23T17:18:54.311Z,16.50
2023-02-23T17:21:25.686Z,25.50
2023-02-23T17:23:56.156Z,28.50
2023-02-23T17:27:08.039Z,26.00
2023-02-23T17:29:06.487Z,25.00
2023-02-23T17:31:46.695Z,20.00
2023-02-23T17:34:11.915Z,20.25
2023-02-23T17:36:45.151Z,28.75
2023-02-23T17:39:19.438Z,34.50
2023-02-23T17:41:52.351Z,26.00
2023-02-23T17:44:24.426Z,26.75
2023-02-23T17:46:54.867Z,29.25
2023-02-23T17:49:26.736Z,24.50
2023-02-23T17:52:01.340Z,27.25
2023-02-23T17:54:34.516Z,31.75
2023-02-23T17:57:05.904Z,31.25
2023-02-23T17:59:36.349Z,31.75
2023-02-23T18:02:06.936Z,32.75
2023-02-23T18:04:37.471Z,27.50
2023-02-23T18:07:11.309Z,42.50
2023-02-23T18:09:41.788Z,45.75
2023-02-23T18:12:30.875Z,39.75
2023-02-23T18:15:24.490Z,45.75
2023-02-23T18:18:01.756Z,60.25
2023-02-23T18:20:42.987Z,57.00
2023-02-23T18:23:19.822Z,45.75
2023-02-23T18:25:59.841Z,48.50
2023-02-23T18:28:38.708Z,48.00
2023-02-23T18:31:37.529Z,47.00
2023-02-23T18:34:18.371Z,42.50
2023-02-23T18:36:50.293Z,44.00
2023-02-23T18:39:24.891Z,47.00
2023-02-23T18:42:29.695Z,44.75
2023-02-23T18:48:00.243Z,49.00
2023-02-23T18:50:38.035Z,54.75
2023-02-23T18:56:22.664Z,38.00
2023-02-23T18:59:04.664Z,58.00
2023-02-23T19:01:43.776Z,82.75
2023-02-23T19:04:20.222Z,72.25
2023-02-23T19:06:49.403Z,82.50
2023-02-23T19:09:26.092Z,84.75
2023-02-23T19:12:07.032Z,69.75
2023-02-23T19:14:49.352Z,93.75
2023-02-23T19:17:35.694Z,89.25
2023-02-23T19:23:04.574Z,84.00
2023-02-23T19:25:37.114Z,98.50
2023-02-23T19:28:13.161Z,100.00
2023-02-23T19:30:41.944Z,93.75
2023-02-23T19:33:29.590Z,90.25
2023-02-23T19:36:36.262Z,90.00
2023-02-23T19:43:15.692Z,96.75
2023-02-23T19:46:07.190Z,89.25
2023-02-23T19:48:49.836Z,94.00
2023-02-23T19:51:24.257Z,86.00
2023-02-23T19:53:56.460Z,78.75
2023-02-23T19:59:15.888Z,83.00
2023-02-23T20:05:27.040Z,84.50
2023-02-23T20:08:20.900Z,66.75
2023-02-23T20:10:55.739Z,69.75
2023-02-23T20:13:27.783Z,63.75
2023-02-23T20:16:07.002Z,64.50
2023-02-23T20:18:40.455Z,74.25
2023-02-23T20:21:22.038Z,62.00
2023-02-23T20:23:53.992Z,72.75
2023-02-23T20:26:34.094Z,69.50
2023-02-23T20:29:08.124Z,70.50
2023-02-23T20:31:42.775Z,73.50
2023-02-23T20:34:17.847Z,62.25
2023-02-23T20:36:50.328Z,61.75
2023-02-23T20:39:20.799Z,72.75
2023-02-23T20:41:59.161Z,78.00
2023-02-23T20:44:33.334Z,77.25
2023-02-23T20:47:04.562Z,84.25
2023-02-23T20:49:39.365Z,74.00
2023-02-23T20:52:13.614Z,79.50
2023-02-23T20:54:45.414Z,84.75
2023-02-23T20:57:19.244Z,79.75
2023-02-23T20:59:58.729Z,81.00
2023-02-23T21:02:30.708Z,79.75
2023-02-23T21:05:10.514Z,75.00
2023-02-23T21:07:42.145Z,75.00
2023-02-23T21:10:15.364Z,76.00
2023-02-23T21:12:56.736Z,68.50
2023-02-23T21:15:33.958Z,75.25
2023-02-23T21:18:08.132Z,65.50
2023-02-23T21:23:41.404Z,72.75
2023-02-23T21:26:14.673Z,66.75
2023-02-23T21:28:56.631Z,62.00
2023-02-23T21:31:27.105Z,73.75
2023-02-23T21:34:00.812Z,86.50
2023-02-23T21:36:47.368Z,70.25
2023-02-23T21:39:19.074Z,76.00
2023-02-23T21:41:50.928Z,70.50
2023-02-23T21:44:25.582Z,67.00
2023-02-23T21:46:56.012Z,57.50
2023-02-23T21:49:30.429Z,53.00
2023-02-23T21:54:52.944Z,54.25
2023-02-23T21:57:29.107Z,41.00
2023-02-23T22:00:07.818Z,46.25
2023-02-23T22:02:38.729Z,53.00
2023-02-23T22:05:13.491Z,57.50
2023-02-23T22:08:04.680Z,56.75
2023-02-23T22:10:39.019Z,53.50
2023-02-23T22:13:09.554Z,37.75
2023-02-23T22:15:42.925Z,56.00
2023-02-23T22:18:13.474Z,51.25
2023-02-23T22:20:51.391Z,45.50
2023-02-23T22:23:27.528Z,41.25
2023-02-23T22:25:55.462Z,48.25
2023-02-23T22:28:30.173Z,40.00
2023-02-23T22:31:20.481Z,46.25
2023-02-23T22:33:56.097Z,46.75
2023-02-23T22:36:28.441Z,34.50
2023-02-23T22:39:03.720Z,43.25
2023-02-23T22:41:37.093Z,47.75
2023-02-23T22:46:57.082Z,50.50
2023-02-23T22:49:31.539Z,49.50
2023-02-23T22:52:02.767Z,52.00
2023-02-23T22:54:37.510Z,43.25
2023-02-23T22:57:08.113Z,29.00
2023-02-23T22:59:39.733Z,37.00
2023-02-23T23:02:10.857Z,25.00
2023-02-23T23:04:42.522Z,38.50
2023-02-23T23:07:13.407Z,36.25
2023-02-23T23:09:45.995Z,27.75
2023-02-23T23:12:19.180Z,25.75
2023-02-23T23:14:52.454Z,34.25
2023-02-23T23:17:22.421Z,29.00
2023-02-23T23:19:53.524Z,27.00
2023-02-23T23:22:26.863Z,33.00
2023-02-23T23:24:59.347Z,21.50
2023-02-23T23:27:29.797Z,30.00
2023-02-23T23:30:06.961Z,27.25
2023-02-23T23:32:38.677Z,35.75
2023-02-23T23:35:09.482Z,26.25
2023-02-23T23:37:40.724Z,29.75
2023-02-23T23:40:13.957Z,22.50
2023-02-23T23:42:51.283Z,45.00
2023-02-23T23:45:21.973Z,47.75
2023-02-23T23:47:52.411Z,42.50
2023-02-23T23:50:23.354Z,44.75
2023-02-23T23:52:54.888Z,47.50
2023-02-23T23:55:25.210Z,63.25
2023-02-23T23:57:55.609Z,42.25
